createdAt,value
2018-10-06T00:00:07.057Z,11.23
2018-10-06T00:02:35.413Z,11.21
2018-10-06T00:05:02.845Z,11.17
2018-10-06T00:07:30.287Z,11.12
2018-10-06T00:09:58.679Z,11.20
2018-10-06T00:12:26.909Z,11.21
2018-10-06T00:14:55.130Z,11.31
2018-10-06T00:17:24.353Z,11.35
2018-10-06T00:22:42.153Z,11.81
2018-10-06T00:25:10.277Z,11.96
2018-10-06T00:27:37.573Z,12.03
2018-10-06T00:30:05.235Z,12.08
2018-10-06T00:32:32.666Z,12.21
2018-10-06T00:35:00.029Z,12.22
2018-10-06T00:37:27.491Z,12.11
2018-10-06T00:39:55.022Z,11.88
2018-10-06T00:42:22.423Z,11.76
2018-10-06T00:44:49.814Z,11.63
2018-10-06T00:47:17.739Z,11.58
2018-10-06T00:49:45.083Z,11.65
2018-10-06T00:52:12.456Z,11.67
2018-10-06T00:54:39.877Z,11.67
2018-10-06T00:57:07.280Z,11.57
2018-10-06T00:59:34.807Z,11.43
2018-10-06T01:02:02.299Z,11.40
2018-10-06T01:04:29.670Z,11.34
2018-10-06T01:06:57.018Z,11.30
2018-10-06T01:09:24.327Z,11.25
2018-10-06T01:11:52.280Z,11.23
2018-10-06T01:14:19.625Z,11.20
2018-10-06T01:16:47.035Z,11.15
2018-10-06T01:19:19.098Z,11.08
2018-10-06T01:21:47.410Z,11.17
2018-10-06T01:24:14.829Z,11.22
2018-10-06T01:26:42.160Z,11.30
2018-10-06T01:29:09.510Z,11.27
2018-10-06T01:31:37.512Z,11.24
2018-10-06T01:34:06.191Z,11.19
2018-10-06T01:36:33.660Z,11.14
2018-10-06T01:39:01.135Z,11.07
2018-10-06T01:41:28.504Z,11.00
2018-10-06T01:43:55.829Z,10.95
2018-10-06T01:46:23.133Z,10.98
2018-10-06T01:48:50.510Z,11.00
2018-10-06T01:51:18.120Z,11.03
2018-10-06T01:53:45.432Z,11.01
2018-10-06T01:56:12.722Z,11.00
2018-10-06T01:58:40.097Z,11.04
2018-10-06T02:01:07.464Z,11.14
2018-10-06T02:03:34.889Z,11.16
2018-10-06T02:06:03.188Z,11.18
2018-10-06T02:08:30.597Z,11.13
2018-10-06T02:10:57.929Z,11.02
2018-10-06T02:13:25.210Z,10.91
2018-10-06T02:15:53.310Z,10.80
2018-10-06T02:18:20.646Z,10.66
2018-10-06T02:20:48.011Z,10.55
2018-10-06T02:23:15.314Z,10.44
2018-10-06T02:25:42.747Z,10.37
2018-10-06T02:28:11.034Z,10.34
2018-10-06T02:30:38.473Z,10.27
2018-10-06T02:33:06.099Z,10.23
2018-10-06T02:35:33.560Z,10.18
2018-10-06T02:38:00.941Z,10.40
2018-10-06T02:40:28.243Z,10.59
2018-10-06T02:42:55.593Z,10.72
2018-10-06T02:45:22.872Z,10.87
2018-10-06T02:47:50.150Z,11.07
2018-10-06T02:50:17.627Z,11.14
2018-10-06T02:52:44.892Z,11.09
2018-10-06T02:55:12.234Z,11.05
2018-10-06T02:57:39.560Z,11.01
2018-10-06T03:00:06.843Z,11.00
2018-10-06T03:02:34.071Z,10.93
2018-10-06T03:05:02.014Z,10.98
2018-10-06T03:07:29.235Z,11.04
2018-10-06T03:09:56.549Z,11.35
2018-10-06T03:12:23.793Z,11.73
2018-10-06T03:14:51.064Z,12.22
2018-10-06T03:17:18.364Z,12.56
2018-10-06T03:19:46.668Z,12.89
2018-10-06T03:22:17.816Z,13.00
2018-10-06T03:24:45.541Z,13.11
2018-10-06T03:27:12.861Z,13.13
2018-10-06T03:29:40.175Z,13.22
2018-10-06T03:32:14.121Z,13.26
2018-10-06T03:34:41.480Z,13.23
2018-10-06T03:37:08.816Z,13.27
2018-10-06T03:39:36.088Z,13.37
2018-10-06T03:42:04.181Z,13.42
2018-10-06T03:44:31.555Z,13.42
2018-10-06T03:46:58.821Z,13.39
2018-10-06T03:49:27.048Z,13.34
2018-10-06T03:51:55.038Z,13.34
2018-10-06T03:54:22.390Z,13.30
2018-10-06T03:56:49.909Z,13.32
2018-10-06T03:59:21.615Z,13.30
2018-10-06T04:01:49.002Z,13.24
2018-10-06T04:04:16.300Z,13.34
2018-10-06T04:06:43.574Z,13.29
2018-10-06T04:09:11.905Z,13.29
2018-10-06T04:11:40.545Z,13.36
2018-10-06T04:14:10.096Z,13.38
2018-10-06T04:16:42.358Z,13.38
2018-10-06T04:19:09.825Z,13.29
2018-10-06T04:21:44.128Z,13.28
2018-10-06T04:24:12.103Z,13.19
2018-10-06T04:26:39.702Z,13.13
2018-10-06T04:29:07.375Z,13.17
2018-10-06T04:31:34.812Z,13.23
2018-10-06T04:34:02.133Z,13.30
2018-10-06T04:36:30.067Z,13.31
2018-10-06T04:38:57.508Z,13.36
2018-10-06T04:41:24.858Z,13.23
2018-10-06T04:43:52.267Z,13.15
2018-10-06T04:46:20.552Z,13.10
2018-10-06T04:48:48.510Z,13.01
2018-10-06T04:51:16.334Z,12.99
2018-10-06T04:53:43.904Z,12.95
2018-10-06T04:56:11.303Z,12.94
2018-10-06T04:58:38.680Z,12.97
2018-10-06T05:01:06.651Z,12.99
2018-10-06T05:03:34.163Z,13.05
2018-10-06T05:06:03.813Z,13.11
2018-10-06T05:08:33.618Z,13.08
2018-10-06T05:11:01.072Z,13.09
2018-10-06T05:13:28.552Z,13.10
2018-10-06T05:15:56.014Z,13.12
2018-10-06T05:18:24.825Z,13.17
2018-10-06T05:20:52.923Z,13.14
2018-10-06T05:23:21.024Z,13.16
2018-10-06T05:25:53.174Z,13.18
2018-10-06T05:28:23.165Z,13.18
2018-10-06T05:30:52.366Z,13.22
2018-10-06T05:33:20.072Z,13.24
2018-10-06T05:35:49.553Z,13.21
2018-10-06T05:38:17.995Z,13.16
2018-10-06T05:40:49.439Z,13.15
2018-10-06T05:43:17.621Z,13.21
2018-10-06T05:45:47.876Z,13.22
2018-10-06T05:48:16.945Z,13.27
2018-10-06T05:50:45.183Z,13.29
2018-10-06T05:53:12.707Z,13.37
2018-10-06T05:55:41.305Z,13.42
2018-10-06T05:58:08.890Z,13.46
2018-10-06T06:00:37.116Z,13.49
2018-10-06T06:03:06.268Z,13.52
2018-10-06T06:05:33.890Z,13.52
2018-10-06T06:08:05.193Z,13.59
2018-10-06T06:10:33.541Z,13.65
2018-10-06T06:13:01.196Z,13.67
2018-10-06T06:15:29.707Z,13.72
2018-10-06T06:17:58.057Z,13.77
2018-10-06T06:20:26.182Z,13.86
2018-10-06T06:22:53.830Z,13.89
2018-10-06T06:25:26.881Z,13.97
2018-10-06T06:27:55.325Z,14.00
2018-10-06T06:30:27.381Z,14.00
2018-10-06T06:32:54.889Z,13.99
2018-10-06T06:35:22.405Z,14.09
2018-10-06T06:37:51.294Z,14.13
2018-10-06T06:40:18.889Z,14.16
2018-10-06T06:42:48.242Z,14.24
2018-10-06T06:45:19.316Z,14.31
2018-10-06T06:47:47.471Z,14.45
2018-10-06T06:50:15.706Z,14.51
2018-10-06T06:52:43.177Z,14.65
2018-10-06T06:55:10.926Z,14.85
2018-10-06T06:57:39.089Z,15.01
2018-10-06T07:00:08.456Z,15.20
2018-10-06T07:02:36.673Z,15.40
2018-10-06T07:05:07.632Z,15.68
2018-10-06T07:07:35.668Z,16.03
2018-10-06T07:10:04.986Z,16.27
2018-10-06T07:12:34.079Z,16.59
2018-10-06T07:15:03.072Z,16.83
2018-10-06T07:17:31.675Z,17.03
2018-10-06T07:20:09.094Z,17.22
2018-10-06T07:22:36.682Z,17.34
2018-10-06T07:25:13.828Z,17.35
2018-10-06T07:27:48.790Z,17.50
2018-10-06T07:30:18.387Z,17.59
2018-10-06T07:32:47.279Z,17.87
2018-10-06T07:35:16.192Z,18.10
2018-10-06T07:37:46.414Z,18.23
2018-10-06T07:40:14.434Z,18.40
2018-10-06T07:42:42.250Z,18.49
2018-10-06T07:45:09.925Z,18.69
2018-10-06T07:47:39.200Z,18.84
2018-10-06T07:50:06.996Z,18.98
2018-10-06T07:52:35.255Z,19.16
2018-10-06T07:55:04.347Z,19.30
2018-10-06T07:57:32.230Z,19.41
2018-10-06T08:00:01.172Z,19.42
2018-10-06T08:02:32.225Z,19.41
2018-10-06T08:05:00.659Z,19.62
2018-10-06T08:07:30.642Z,19.85
2018-10-06T08:10:01.081Z,19.86
2018-10-06T08:12:29.890Z,19.71
2018-10-06T08:15:01.070Z,19.76
2018-10-06T08:17:28.832Z,19.98
2018-10-06T08:19:57.149Z,20.14
2018-10-06T08:22:28.691Z,20.42
2018-10-06T08:24:59.421Z,20.71
2018-10-06T08:27:28.641Z,20.81
2018-10-06T08:29:59.478Z,20.78
2018-10-06T08:32:27.048Z,21.10
2018-10-06T08:34:57.324Z,21.31
2018-10-06T08:37:26.481Z,21.34
2018-10-06T08:40:09.564Z,21.70
2018-10-06T08:42:37.582Z,21.81
2018-10-06T08:45:06.002Z,21.79
2018-10-06T08:47:33.790Z,21.70
2018-10-06T08:50:01.422Z,21.71
2018-10-06T08:52:29.762Z,21.75
2018-10-06T08:54:58.424Z,21.91
2018-10-06T08:57:29.385Z,22.19
2018-10-06T08:59:57.624Z,22.25
2018-10-06T09:02:28.607Z,22.36
2018-10-06T09:04:56.299Z,22.34
2018-10-06T09:07:24.067Z,22.37
2018-10-06T09:09:52.646Z,22.37
2018-10-06T09:12:20.426Z,22.35
2018-10-06T09:14:47.878Z,22.32
2018-10-06T09:17:16.656Z,22.34
2018-10-06T09:19:44.175Z,22.53
2018-10-06T09:22:11.744Z,22.73
2018-10-06T09:24:39.216Z,23.11
2018-10-06T09:27:07.996Z,23.18
2018-10-06T09:29:40.616Z,23.15
2018-10-06T09:32:10.351Z,23.06
2018-10-06T09:34:38.797Z,23.20
2018-10-06T09:37:07.280Z,23.55
2018-10-06T09:39:36.858Z,23.72
2018-10-06T09:42:05.078Z,23.76
2018-10-06T09:44:34.159Z,23.91
2018-10-06T09:47:02.892Z,24.06
2018-10-06T09:49:34.142Z,24.33
2018-10-06T09:52:05.978Z,24.37
2018-10-06T09:54:33.864Z,24.75
2018-10-06T09:57:01.813Z,24.78
2018-10-06T09:59:30.216Z,24.60
2018-10-06T10:02:03.630Z,24.44
2018-10-06T10:04:31.188Z,24.35
2018-10-06T10:07:00.695Z,24.52
2018-10-06T10:09:29.343Z,24.66
2018-10-06T10:11:57.681Z,24.80
2018-10-06T10:14:26.025Z,25.06
2018-10-06T10:16:54.333Z,25.25
2018-10-06T10:19:23.844Z,25.13
2018-10-06T10:21:51.602Z,25.18
2018-10-06T10:24:19.153Z,25.25
2018-10-06T10:26:46.698Z,25.10
2018-10-06T10:29:14.738Z,25.38
2018-10-06T10:31:43.496Z,25.39
2018-10-06T10:34:11.066Z,25.91
2018-10-06T10:36:39.376Z,26.38
2018-10-06T10:39:16.165Z,26.49
2018-10-06T10:42:04.393Z,26.16
2018-10-06T10:44:35.169Z,26.12
2018-10-06T10:47:04.735Z,26.48
2018-10-06T10:49:32.765Z,26.68
2018-10-06T10:52:01.299Z,26.42
2018-10-06T10:54:29.128Z,26.99
2018-10-06T10:56:57.181Z,27.00
2018-10-06T10:59:25.345Z,26.69
2018-10-06T11:01:54.444Z,26.83
2018-10-06T11:04:21.916Z,27.05
2018-10-06T11:06:49.877Z,27.19
2018-10-06T11:09:17.389Z,27.29
2018-10-06T11:11:44.932Z,26.97
2018-10-06T11:14:13.306Z,27.13
2018-10-06T11:16:43.705Z,27.15
2018-10-06T11:19:12.345Z,26.97
2018-10-06T11:21:40.652Z,27.23
2018-10-06T11:24:09.624Z,27.18
2018-10-06T11:26:37.909Z,27.05
2018-10-06T11:29:05.527Z,26.48
2018-10-06T11:31:33.356Z,26.37
2018-10-06T11:34:01.698Z,26.27
2018-10-06T11:36:29.348Z,26.32
2018-10-06T11:38:58.112Z,26.45
2018-10-06T11:41:30.687Z,26.64
2018-10-06T11:44:00.617Z,26.87
2018-10-06T11:46:31.384Z,27.09
2018-10-06T11:49:00.166Z,27.49
2018-10-06T11:51:29.040Z,27.89
2018-10-06T11:53:56.796Z,27.89
2018-10-06T11:56:25.981Z,27.79
2018-10-06T11:58:58.705Z,28.07
2018-10-06T12:04:00.873Z,28.28
2018-10-06T12:06:29.627Z,28.10
2018-10-06T12:08:58.015Z,27.92
2018-10-06T12:11:26.304Z,27.28
2018-10-06T12:13:54.486Z,26.91
2018-10-06T12:16:24.469Z,26.51
2018-10-06T12:18:52.034Z,26.06
2018-10-06T12:21:21.733Z,25.64
2018-10-06T12:23:51.496Z,25.55
2018-10-06T12:26:23.164Z,25.33
2018-10-06T12:28:52.425Z,25.29
2018-10-06T12:31:22.587Z,25.10
2018-10-06T12:33:50.136Z,25.15
2018-10-06T12:36:18.996Z,25.10
2018-10-06T12:38:48.118Z,25.06
2018-10-06T12:41:19.712Z,24.95
2018-10-06T12:43:50.751Z,24.74
2018-10-06T12:46:18.543Z,24.55
2018-10-06T12:48:50.630Z,24.49
2018-10-06T12:51:19.932Z,24.41
2018-10-06T12:53:50.421Z,24.62
2018-10-06T12:56:18.040Z,24.78
2018-10-06T12:58:46.498Z,24.83
2018-10-06T13:01:17.550Z,24.66
2018-10-06T13:03:45.706Z,24.39
2018-10-06T13:06:14.273Z,24.24
2018-10-06T13:08:43.499Z,23.93
2018-10-06T13:11:12.643Z,23.68
2018-10-06T13:13:40.494Z,23.43
2018-10-06T13:16:11.684Z,23.41
2018-10-06T13:18:39.474Z,23.29
2018-10-06T13:21:07.697Z,23.13
2018-10-06T13:23:36.867Z,23.13
2018-10-06T13:26:04.373Z,23.06
2018-10-06T13:28:32.177Z,23.05
2018-10-06T13:31:01.101Z,23.02
2018-10-06T13:33:29.735Z,22.93
2018-10-06T13:35:57.540Z,22.87
2018-10-06T13:38:26.160Z,22.86
2018-10-06T13:40:53.697Z,22.78
2018-10-06T13:43:21.354Z,22.70
2018-10-06T13:45:49.675Z,22.75
2018-10-06T13:48:18.539Z,22.77
2018-10-06T13:50:46.176Z,22.75
2018-10-06T13:53:14.272Z,22.79
2018-10-06T13:55:44.849Z,22.85
2018-10-06T13:58:12.939Z,22.78
2018-10-06T14:00:40.786Z,22.60
2018-10-06T14:03:08.990Z,22.76
2018-10-06T14:05:36.726Z,22.66
2018-10-06T14:08:04.313Z,22.58
2018-10-06T14:10:32.872Z,22.58
2018-10-06T14:13:00.504Z,22.58
2018-10-06T14:15:28.180Z,22.74
2018-10-06T14:17:56.494Z,22.86
2018-10-06T14:20:23.978Z,22.88
2018-10-06T14:22:52.578Z,22.87
2018-10-06T14:25:21.117Z,22.94
2018-10-06T14:27:48.938Z,22.94
2018-10-06T14:30:17.143Z,22.82
2018-10-06T14:32:45.440Z,22.86
2018-10-06T14:35:14.580Z,22.94
2018-10-06T14:37:42.870Z,22.89
2018-10-06T14:40:11.112Z,22.84
2018-10-06T14:42:39.711Z,22.78
2018-10-06T14:45:09.166Z,22.74
2018-10-06T14:47:37.662Z,22.82
2018-10-06T14:50:06.572Z,22.76
2018-10-06T14:52:36.249Z,22.77
2018-10-06T14:55:04.298Z,22.69
2018-10-06T14:57:32.410Z,22.78
2018-10-06T15:00:01.533Z,22.90
2018-10-06T15:02:29.224Z,22.92
2018-10-06T15:04:58.700Z,22.91
2018-10-06T15:07:28.604Z,22.96
2018-10-06T15:09:57.444Z,22.94
2018-10-06T15:12:28.340Z,22.95
2018-10-06T15:14:56.712Z,22.93
2018-10-06T15:17:24.152Z,22.88
2018-10-06T15:19:52.766Z,22.82
2018-10-06T15:22:20.588Z,22.79
2018-10-06T15:24:49.079Z,22.75
2018-10-06T15:27:17.389Z,22.66
2018-10-06T15:29:45.874Z,22.62
2018-10-06T15:32:14.223Z,22.51
2018-10-06T15:34:42.409Z,22.43
2018-10-06T15:37:10.034Z,22.31
2018-10-06T15:39:38.473Z,22.26
2018-10-06T15:44:33.436Z,22.06
2018-10-06T15:47:01.330Z,22.02
2018-10-06T15:49:29.565Z,21.96
2018-10-06T15:51:58.623Z,21.95
2018-10-06T15:54:26.177Z,21.88
2018-10-06T15:56:53.775Z,21.78
2018-10-06T15:59:21.767Z,21.72
2018-10-06T16:01:51.340Z,21.63
2018-10-06T16:04:19.072Z,21.58
2018-10-06T16:06:46.484Z,21.46
2018-10-06T16:09:14.892Z,21.42
2018-10-06T16:11:42.305Z,21.29
2018-10-06T16:14:09.645Z,21.21
2018-10-06T16:16:37.141Z,21.10
2018-10-06T16:19:04.582Z,20.98
2018-10-06T16:21:33.386Z,20.86
2018-10-06T16:24:01.664Z,20.76
2018-10-06T16:26:31.066Z,20.61
2018-10-06T16:28:59.016Z,20.57
2018-10-06T16:31:27.301Z,20.42
2018-10-06T16:33:55.022Z,20.33
2018-10-06T16:36:22.622Z,20.28
2018-10-06T16:38:50.947Z,20.20
2018-10-06T16:41:20.337Z,20.11
2018-10-06T16:43:47.902Z,20.02
2018-10-06T16:46:16.809Z,19.94
2018-10-06T16:48:44.703Z,19.86
2018-10-06T16:51:12.367Z,19.78
2018-10-06T16:53:40.491Z,19.78
2018-10-06T16:56:09.407Z,19.74
2018-10-06T16:58:36.992Z,19.64
2018-10-06T17:01:04.793Z,19.52
2018-10-06T17:03:32.838Z,19.42
2018-10-06T17:06:00.394Z,19.38
2018-10-06T17:08:27.830Z,19.45
2018-10-06T17:10:55.243Z,19.50
2018-10-06T17:13:22.756Z,19.57
2018-10-06T17:15:50.826Z,19.62
2018-10-06T17:18:18.250Z,19.66
2018-10-06T17:20:45.619Z,19.63
2018-10-06T17:23:13.873Z,19.52
2018-10-06T17:25:41.241Z,19.36
2018-10-06T17:28:08.641Z,19.22
2018-10-06T17:30:36.143Z,19.06
2018-10-06T17:33:03.543Z,18.96
2018-10-06T17:35:31.019Z,18.89
2018-10-06T17:37:58.469Z,18.79
2018-10-06T17:40:26.579Z,18.70
2018-10-06T17:42:53.943Z,18.63
2018-10-06T17:45:21.353Z,18.56
2018-10-06T17:47:49.019Z,18.52
2018-10-06T17:50:17.234Z,18.47
2018-10-06T17:52:44.406Z,18.43
2018-10-06T17:55:11.844Z,18.39
2018-10-06T17:57:39.523Z,18.39
2018-10-06T18:00:06.896Z,18.35
2018-10-06T18:02:34.917Z,18.31
2018-10-06T18:05:02.488Z,18.35
2018-10-06T18:07:30.847Z,18.35
2018-10-06T18:09:58.279Z,18.35
2018-10-06T18:12:25.886Z,18.37
2018-10-06T18:14:53.496Z,18.35
2018-10-06T18:17:21.126Z,18.34
2018-10-06T18:19:48.752Z,18.32
2018-10-06T18:22:16.247Z,18.32
2018-10-06T18:24:45.190Z,18.32
2018-10-06T18:27:19.237Z,18.35
2018-10-06T18:29:52.827Z,18.37
2018-10-06T18:32:21.929Z,18.35
2018-10-06T18:35:01.786Z,18.33
2018-10-06T18:37:30.571Z,18.32
2018-10-06T18:40:25.375Z,18.36
2018-10-06T18:42:55.054Z,18.33
2018-10-06T18:45:46.380Z,18.31
2018-10-06T18:48:17.333Z,18.31
2018-10-06T18:50:46.441Z,18.25
2018-10-06T18:53:15.083Z,18.20
2018-10-06T18:55:52.797Z,18.17
2018-10-06T18:58:35.840Z,18.18
2018-10-06T19:01:07.598Z,18.18
2018-10-06T19:03:43.487Z,18.21
2018-10-06T19:06:11.161Z,18.20
2018-10-06T19:08:47.918Z,18.16
2018-10-06T19:11:18.583Z,18.10
2018-10-06T19:13:48.943Z,18.02
2018-10-06T19:16:22.610Z,17.93
2018-10-06T19:19:10.515Z,17.91
2018-10-06T19:21:52.042Z,17.87
2018-10-06T19:24:37.591Z,17.77
2018-10-06T19:27:16.355Z,17.73
2018-10-06T19:29:52.701Z,17.70
2018-10-06T19:32:40.978Z,17.65
2018-10-06T19:35:38.027Z,17.60
2018-10-06T19:38:18.155Z,17.52
2018-10-06T19:40:56.183Z,17.49
2018-10-06T19:43:30.232Z,17.47
2018-10-06T19:45:58.143Z,17.47
2018-10-06T19:48:49.723Z,17.44
2018-10-06T19:51:26.133Z,17.47
2018-10-06T19:54:00.968Z,17.46
2018-10-06T19:56:37.998Z,17.45
2018-10-06T19:59:08.983Z,17.44
2018-10-06T20:01:50.451Z,17.43
2018-10-06T20:04:32.579Z,17.43
2018-10-06T20:07:21.224Z,17.44
2018-10-06T20:10:07.739Z,17.45
2018-10-06T20:12:35.941Z,17.46
2018-10-06T20:15:06.341Z,17.55
2018-10-06T20:17:35.118Z,17.67
2018-10-06T20:20:09.751Z,17.71
2018-10-06T20:22:38.604Z,17.85
2018-10-06T20:25:10.465Z,17.97
2018-10-06T20:27:40.659Z,18.05
2018-10-06T20:30:13.311Z,18.12
2018-10-06T20:32:41.531Z,18.14
2018-10-06T20:35:11.193Z,18.22
2018-10-06T20:37:42.606Z,18.24
2018-10-06T20:40:11.362Z,18.18
2018-10-06T20:42:41.017Z,18.11
2018-10-06T20:45:20.105Z,18.05
2018-10-06T20:47:52.476Z,18.00
2018-10-06T20:50:20.986Z,18.00
2018-10-06T20:52:55.189Z,17.95
2018-10-06T20:55:34.777Z,17.93
2018-10-06T20:58:20.980Z,17.93
2018-10-06T21:01:03.260Z,17.92
2018-10-06T21:03:32.299Z,17.98
2018-10-06T21:06:03.024Z,17.97
2018-10-06T21:08:48.577Z,18.00
2018-10-06T21:11:20.797Z,18.01
2018-10-06T21:13:48.165Z,18.03
2018-10-06T21:16:15.738Z,18.04
2018-10-06T21:18:43.736Z,18.09
2018-10-06T21:21:11.089Z,18.09
2018-10-06T21:23:38.653Z,18.07
2018-10-06T21:26:06.180Z,18.08
2018-10-06T21:28:33.561Z,18.04
2018-10-06T21:31:00.949Z,18.00
2018-10-06T21:33:28.206Z,18.00
2018-10-06T21:35:55.524Z,18.02
2018-10-06T21:38:22.888Z,18.05
2018-10-06T21:40:50.190Z,18.15
2018-10-06T21:43:18.143Z,18.12
2018-10-06T21:45:45.471Z,18.09
2018-10-06T21:48:12.909Z,18.03
2018-10-06T21:50:40.335Z,17.92
2018-10-06T21:53:07.773Z,17.92
2018-10-06T21:55:35.112Z,17.88
2018-10-06T21:58:04.336Z,17.77
2018-10-06T22:00:35.972Z,17.76
2018-10-06T22:03:04.351Z,17.69
2018-10-06T22:05:31.731Z,17.62
2018-10-06T22:07:59.215Z,17.54
2018-10-06T22:10:47.704Z,17.52
2018-10-06T22:13:15.249Z,17.46
2018-10-06T22:15:50.470Z,17.41
2018-10-06T22:18:17.808Z,17.45
2018-10-06T22:20:47.744Z,17.40
2018-10-06T22:23:15.632Z,17.34
2018-10-06T22:25:42.993Z,17.27
2018-10-06T22:28:10.285Z,17.27
2018-10-06T22:30:37.629Z,17.28
2018-10-06T22:33:05.005Z,17.31
2018-10-06T22:35:32.346Z,17.31
2018-10-06T22:37:59.721Z,17.30
2018-10-06T22:40:27.261Z,17.32
2018-10-06T22:42:54.628Z,17.33
2018-10-06T22:45:22.066Z,17.31
2018-10-06T22:47:49.521Z,17.25
2018-10-06T22:50:17.513Z,17.13
2018-10-06T22:52:46.552Z,17.04
2018-10-06T22:55:13.920Z,16.95
2018-10-06T22:57:41.269Z,16.88
2018-10-06T23:00:08.779Z,16.81
2018-10-06T23:02:36.898Z,16.73
2018-10-06T23:05:05.260Z,16.65
2018-10-06T23:07:33.630Z,16.58
2018-10-06T23:10:04.647Z,16.52
2018-10-06T23:12:32.907Z,16.59
2018-10-06T23:15:00.922Z,16.51
2018-10-06T23:17:28.286Z,16.43
2018-10-06T23:19:55.662Z,16.34
2018-10-06T23:22:23.170Z,16.29
2018-10-06T23:24:50.576Z,16.21
2018-10-06T23:27:18.117Z,16.12
2018-10-06T23:29:46.110Z,16.03
2018-10-06T23:32:13.629Z,15.93
2018-10-06T23:34:41.702Z,15.86
2018-10-06T23:37:09.254Z,15.82
2018-10-06T23:39:36.803Z,15.79
2018-10-06T23:42:04.931Z,15.77
2018-10-06T23:44:33.677Z,15.71
2018-10-06T23:47:01.877Z,15.61
2018-10-06T23:49:29.251Z,15.54
2018-10-06T23:51:57.364Z,15.50
2018-10-06T23:54:29.137Z,15.44
2018-10-06T23:56:58.771Z,15.32
2018-10-06T23:59:26.537Z,15.24
